sensor_id;sensor_type;location;lat;lon;timestamp;P1;durP1;ratioP1;P2;durP2;ratioP2
25437;SDS011;13364;49.084;9.978;2023-08-17T00:01:53;3.05;;;2.10;;
25437;SDS011;13364;49.084;9.978;2023-08-17T00:04:20;3.25;;;2.13;;
25437;SDS011;13364;49.084;9.978;2023-08-17T00:06:48;2.30;;;2.10;;
25437;SDS011;13364;49.084;9.978;2023-08-17T00:09:15;4.70;;;2.38;;
25437;SDS011;13364;49.084;9.978;2023-08-17T00:11:42;3.10;;;2.33;;
25437;SDS011;13364;49.084;9.978;2023-08-17T00:14:10;4.93;;;2.30;;
25437;SDS011;13364;49.084;9.978;2023-08-17T00:16:39;2.58;;;2.30;;
25437;SDS011;13364;49.084;9.978;2023-08-17T00:19:06;3.35;;;2.58;;
25437;SDS011;13364;49.084;9.978;2023-08-17T00:21:33;3.47;;;2.03;;
25437;SDS011;13364;49.084;9.978;2023-08-17T00:24:00;2.45;;;2.25;;
25437;SDS011;13364;49.084;9.978;2023-08-17T00:26:27;3.28;;;2.80;;
25437;SDS011;13364;49.084;9.978;2023-08-17T00:33:13;3.25;;;2.58;;
25437;SDS011;13364;49.084;9.978;2023-08-17T00:35:40;2.63;;;2.40;;
25437;SDS011;13364;49.084;9.978;2023-08-17T00:38:07;3.67;;;2.92;;
25437;SDS011;13364;49.084;9.978;2023-08-17T00:40:34;3.75;;;2.78;;
25437;SDS011;13364;49.084;9.978;2023-08-17T00:43:01;2.83;;;2.58;;
25437;SDS011;13364;49.084;9.978;2023-08-17T00:45:28;4.55;;;2.67;;
25437;SDS011;13364;49.084;9.978;2023-08-17T00:47:56;3.90;;;2.70;;
25437;SDS011;13364;49.084;9.978;2023-08-17T00:50:25;2.70;;;2.40;;
25437;SDS011;13364;49.084;9.978;2023-08-17T00:52:54;2.60;;;2.40;;
25437;SDS011;13364;49.084;9.978;2023-08-17T00:55:22;2.40;;;2.20;;
25437;SDS011;13364;49.084;9.978;2023-08-17T00:57:50;4.38;;;2.22;;
25437;SDS011;13364;49.084;9.978;2023-08-17T01:00:20;2.40;;;2.10;;
25437;SDS011;13364;49.084;9.978;2023-08-17T01:02:48;2.40;;;2.20;;
25437;SDS011;13364;49.084;9.978;2023-08-17T01:05:16;2.55;;;2.35;;
25437;SDS011;13364;49.084;9.978;2023-08-17T01:07:43;3.60;;;2.80;;
25437;SDS011;13364;49.084;9.978;2023-08-17T01:10:10;5.20;;;2.60;;
25437;SDS011;13364;49.084;9.978;2023-08-17T01:12:55;3.20;;;2.92;;
25437;SDS011;13364;49.084;9.978;2023-08-17T01:15:31;2.78;;;2.58;;
25437;SDS011;13364;49.084;9.978;2023-08-17T01:18:11;2.85;;;2.58;;
25437;SDS011;13364;49.084;9.978;2023-08-17T01:20:53;2.72;;;2.33;;
25437;SDS011;13364;49.084;9.978;2023-08-17T01:23:21;3.90;;;2.80;;
25437;SDS011;13364;49.084;9.978;2023-08-17T01:30:15;3.65;;;2.63;;
25437;SDS011;13364;49.084;9.978;2023-08-17T01:32:51;3.33;;;3.03;;
25437;SDS011;13364;49.084;9.978;2023-08-17T01:35:32;7.72;;;2.90;;
25437;SDS011;13364;49.084;9.978;2023-08-17T01:38:10;4.15;;;3.22;;
25437;SDS011;13364;49.084;9.978;2023-08-17T01:40:42;3.80;;;3.15;;
25437;SDS011;13364;49.084;9.978;2023-08-17T01:43:12;4.68;;;3.80;;
25437;SDS011;13364;49.084;9.978;2023-08-17T01:45:42;2.70;;;2.50;;
25437;SDS011;13364;49.084;9.978;2023-08-17T01:48:10;4.45;;;3.75;;
25437;SDS011;13364;49.084;9.978;2023-08-17T01:50:37;4.13;;;2.75;;
25437;SDS011;13364;49.084;9.978;2023-08-17T01:53:04;4.25;;;2.63;;
25437;SDS011;13364;49.084;9.978;2023-08-17T01:55:32;5.30;;;3.30;;
25437;SDS011;13364;49.084;9.978;2023-08-17T01:57:59;4.45;;;3.90;;
25437;SDS011;13364;49.084;9.978;2023-08-17T02:00:26;4.70;;;4.30;;
25437;SDS011;13364;49.084;9.978;2023-08-17T02:02:53;4.53;;;4.10;;
25437;SDS011;13364;49.084;9.978;2023-08-17T02:05:20;7.28;;;4.03;;
25437;SDS011;13364;49.084;9.978;2023-08-17T02:07:47;4.50;;;4.10;;
25437;SDS011;13364;49.084;9.978;2023-08-17T02:10:14;5.47;;;4.80;;
25437;SDS011;13364;49.084;9.978;2023-08-17T02:12:42;5.50;;;4.70;;
25437;SDS011;13364;49.084;9.978;2023-08-17T02:15:09;7.40;;;4.75;;
25437;SDS011;13364;49.084;9.978;2023-08-17T02:17:36;4.72;;;4.25;;
25437;SDS011;13364;49.084;9.978;2023-08-17T02:20:03;4.28;;;3.88;;
25437;SDS011;13364;49.084;9.978;2023-08-17T02:22:31;5.38;;;4.55;;
25437;SDS011;13364;49.084;9.978;2023-08-17T02:29:24;5.43;;;4.13;;
25437;SDS011;13364;49.084;9.978;2023-08-17T02:31:51;4.70;;;4.25;;
25437;SDS011;13364;49.084;9.978;2023-08-17T02:34:18;5.03;;;4.15;;
25437;SDS011;13364;49.084;9.978;2023-08-17T02:36:45;5.45;;;4.70;;
25437;SDS011;13364;49.084;9.978;2023-08-17T02:39:12;5.82;;;4.55;;
25437;SDS011;13364;49.084;9.978;2023-08-17T02:41:39;5.03;;;4.53;;
25437;SDS011;13364;49.084;9.978;2023-08-17T02:44:08;6.28;;;4.05;;
25437;SDS011;13364;49.084;9.978;2023-08-17T02:46:35;4.65;;;4.00;;
25437;SDS011;13364;49.084;9.978;2023-08-17T02:49:02;5.05;;;4.55;;
25437;SDS011;13364;49.084;9.978;2023-08-17T02:51:29;6.72;;;4.80;;
25437;SDS011;13364;49.084;9.978;2023-08-17T02:53:56;5.30;;;4.60;;
25437;SDS011;13364;49.084;9.978;2023-08-17T02:56:24;5.45;;;4.78;;
25437;SDS011;13364;49.084;9.978;2023-08-17T02:58:51;4.85;;;4.15;;
25437;SDS011;13364;49.084;9.978;2023-08-17T03:01:18;5.90;;;3.97;;
25437;SDS011;13364;49.084;9.978;2023-08-17T03:03:47;4.20;;;3.80;;
25437;SDS011;13364;49.084;9.978;2023-08-17T03:06:15;5.20;;;4.60;;
25437;SDS011;13364;49.084;9.978;2023-08-17T03:08:42;4.63;;;3.70;;
25437;SDS011;13364;49.084;9.978;2023-08-17T03:11:10;3.78;;;3.47;;
25437;SDS011;13364;49.084;9.978;2023-08-17T03:13:37;5.65;;;4.00;;
25437;SDS011;13364;49.084;9.978;2023-08-17T03:16:04;4.97;;;3.80;;
25437;SDS011;13364;49.084;9.978;2023-08-17T03:18:31;5.75;;;4.07;;
25437;SDS011;13364;49.084;9.978;2023-08-17T03:20:59;4.72;;;3.95;;
25437;SDS011;13364;49.084;9.978;2023-08-17T03:23:26;5.95;;;4.18;;
25437;SDS011;13364;49.084;9.978;2023-08-17T03:25:53;3.78;;;3.40;;
25437;SDS011;13364;49.084;9.978;2023-08-17T03:28:21;3.72;;;3.22;;
25437;SDS011;13364;49.084;9.978;2023-08-17T03:30:49;5.25;;;3.83;;
25437;SDS011;13364;49.084;9.978;2023-08-17T03:33:16;6.13;;;4.07;;
25437;SDS011;13364;49.084;9.978;2023-08-17T03:35:43;6.47;;;3.92;;
25437;SDS011;13364;49.084;9.978;2023-08-17T03:38:10;4.43;;;3.92;;
25437;SDS011;13364;49.084;9.978;2023-08-17T03:40:37;5.55;;;4.20;;
25437;SDS011;13364;49.084;9.978;2023-08-17T03:43:04;4.22;;;3.83;;
25437;SDS011;13364;49.084;9.978;2023-08-17T03:45:32;4.75;;;4.15;;
25437;SDS011;13364;49.084;9.978;2023-08-17T03:47:59;5.18;;;4.25;;
25437;SDS011;13364;49.084;9.978;2023-08-17T03:50:27;4.70;;;4.00;;
25437;SDS011;13364;49.084;9.978;2023-08-17T03:52:54;6.25;;;4.55;;
25437;SDS011;13364;49.084;9.978;2023-08-17T03:55:22;4.80;;;3.97;;
25437;SDS011;13364;49.084;9.978;2023-08-17T03:57:49;4.40;;;3.85;;
25437;SDS011;13364;49.084;9.978;2023-08-17T04:00:16;4.60;;;3.97;;
25437;SDS011;13364;49.084;9.978;2023-08-17T04:02:43;4.88;;;3.85;;
25437;SDS011;13364;49.084;9.978;2023-08-17T04:05:16;4.32;;;3.75;;
25437;SDS011;13364;49.084;9.978;2023-08-17T04:07:44;5.03;;;3.90;;
25437;SDS011;13364;49.084;9.978;2023-08-17T04:10:11;5.43;;;4.38;;
25437;SDS011;13364;49.084;9.978;2023-08-17T04:12:38;5.40;;;3.80;;
25437;SDS011;13364;49.084;9.978;2023-08-17T04:15:06;4.25;;;3.85;;
25437;SDS011;13364;49.084;9.978;2023-08-17T04:17:33;5.28;;;4.20;;
25437;SDS011;13364;49.084;9.978;2023-08-17T04:20:02;5.10;;;3.85;;
25437;SDS011;13364;49.084;9.978;2023-08-17T04:22:29;4.68;;;4.15;;
25437;SDS011;13364;49.084;9.978;2023-08-17T04:24:57;4.82;;;3.90;;
25437;SDS011;13364;49.084;9.978;2023-08-17T04:27:24;4.63;;;4.05;;
25437;SDS011;13364;49.084;9.978;2023-08-17T04:29:52;6.07;;;3.92;;
25437;SDS011;13364;49.084;9.978;2023-08-17T04:32:20;4.32;;;3.75;;
25437;SDS011;13364;49.084;9.978;2023-08-17T04:34:47;4.70;;;4.20;;
25437;SDS011;13364;49.084;9.978;2023-08-17T04:37:15;5.15;;;3.70;;
25437;SDS011;13364;49.084;9.978;2023-08-17T04:39:42;3.83;;;3.53;;
25437;SDS011;13364;49.084;9.978;2023-08-17T04:42:16;5.53;;;3.55;;
25437;SDS011;13364;49.084;9.978;2023-08-17T04:44:43;4.05;;;3.65;;
25437;SDS011;13364;49.084;9.978;2023-08-17T04:47:10;4.85;;;3.90;;
25437;SDS011;13364;49.084;9.978;2023-08-17T04:49:37;4.75;;;4.00;;
25437;SDS011;13364;49.084;9.978;2023-08-17T04:52:04;4.18;;;3.78;;
25437;SDS011;13364;49.084;9.978;2023-08-17T04:54:32;3.92;;;3.40;;
25437;SDS011;13364;49.084;9.978;2023-08-17T04:57:00;5.15;;;4.20;;
25437;SDS011;13364;49.084;9.978;2023-08-17T04:59:27;5.22;;;4.03;;
25437;SDS011;13364;49.084;9.978;2023-08-17T05:04:48;4.68;;;3.67;;
25437;SDS011;13364;49.084;9.978;2023-08-17T05:07:15;5.57;;;4.50;;
25437;SDS011;13364;49.084;9.978;2023-08-17T05:09:42;5.20;;;3.97;;
25437;SDS011;13364;49.084;9.978;2023-08-17T05:12:09;5.93;;;5.00;;
25437;SDS011;13364;49.084;9.978;2023-08-17T05:14:37;4.95;;;4.43;;
25437;SDS011;13364;49.084;9.978;2023-08-17T05:17:04;7.65;;;5.00;;
25437;SDS011;13364;49.084;9.978;2023-08-17T05:19:32;5.75;;;5.15;;
25437;SDS011;13364;49.084;9.978;2023-08-17T05:21:59;4.68;;;4.10;;
25437;SDS011;13364;49.084;9.978;2023-08-17T05:24:27;6.03;;;4.82;;
25437;SDS011;13364;49.084;9.978;2023-08-17T05:26:54;5.10;;;4.60;;
25437;SDS011;13364;49.084;9.978;2023-08-17T05:29:21;6.43;;;5.10;;
25437;SDS011;13364;49.084;9.978;2023-08-17T05:31:49;5.25;;;4.75;;
25437;SDS011;13364;49.084;9.978;2023-08-17T05:34:16;5.60;;;4.72;;
25437;SDS011;13364;49.084;9.978;2023-08-17T05:36:43;5.95;;;4.57;;
25437;SDS011;13364;49.084;9.978;2023-08-17T05:39:12;6.40;;;4.63;;
25437;SDS011;13364;49.084;9.978;2023-08-17T05:41:39;6.30;;;5.05;;
25437;SDS011;13364;49.084;9.978;2023-08-17T05:44:06;5.55;;;4.95;;
25437;SDS011;13364;49.084;9.978;2023-08-17T05:46:33;6.10;;;5.50;;
25437;SDS011;13364;49.084;9.978;2023-08-17T05:49:11;5.50;;;5.00;;
25437;SDS011;13364;49.084;9.978;2023-08-17T05:51:38;6.05;;;5.18;;
25437;SDS011;13364;49.084;9.978;2023-08-17T05:54:05;6.22;;;5.35;;
25437;SDS011;13364;49.084;9.978;2023-08-17T05:56:33;6.15;;;5.55;;
25437;SDS011;13364;49.084;9.978;2023-08-17T05:59:01;7.65;;;6.38;;
25437;SDS011;13364;49.084;9.978;2023-08-17T06:01:28;8.05;;;6.00;;
25437;SDS011;13364;49.084;9.978;2023-08-17T06:03:55;7.45;;;5.65;;
25437;SDS011;13364;49.084;9.978;2023-08-17T06:06:22;6.72;;;5.80;;
25437;SDS011;13364;49.084;9.978;2023-08-17T06:08:50;7.05;;;5.57;;
25437;SDS011;13364;49.084;9.978;2023-08-17T06:11:17;6.93;;;6.00;;
25437;SDS011;13364;49.084;9.978;2023-08-17T06:13:44;6.80;;;5.70;;
25437;SDS011;13364;49.084;9.978;2023-08-17T06:16:19;7.95;;;6.50;;
25437;SDS011;13364;49.084;9.978;2023-08-17T06:18:46;9.70;;;6.35;;
25437;SDS011;13364;49.084;9.978;2023-08-17T06:21:13;7.18;;;6.10;;
25437;SDS011;13364;49.084;9.978;2023-08-17T06:23:40;7.72;;;5.95;;
25437;SDS011;13364;49.084;9.978;2023-08-17T06:26:07;7.55;;;6.03;;
25437;SDS011;13364;49.084;9.978;2023-08-17T06:28:35;7.25;;;6.30;;
25437;SDS011;13364;49.084;9.978;2023-08-17T06:31:02;7.53;;;5.97;;
25437;SDS011;13364;49.084;9.978;2023-08-17T06:33:29;8.38;;;6.88;;
25437;SDS011;13364;49.084;9.978;2023-08-17T06:35:56;7.07;;;5.85;;
25437;SDS011;13364;49.084;9.978;2023-08-17T06:38:23;8.07;;;6.72;;
25437;SDS011;13364;49.084;9.978;2023-08-17T06:40:51;6.60;;;5.90;;
25437;SDS011;13364;49.084;9.978;2023-08-17T06:43:19;6.75;;;6.05;;
25437;SDS011;13364;49.084;9.978;2023-08-17T06:45:46;6.88;;;6.20;;
25437;SDS011;13364;49.084;9.978;2023-08-17T06:48:13;7.30;;;6.50;;
25437;SDS011;13364;49.084;9.978;2023-08-17T06:50:40;7.95;;;7.07;;
25437;SDS011;13364;49.084;9.978;2023-08-17T06:53:08;7.85;;;7.05;;
25437;SDS011;13364;49.084;9.978;2023-08-17T06:55:35;7.50;;;6.70;;
25437;SDS011;13364;49.084;9.978;2023-08-17T06:58:02;11.15;;;7.53;;
25437;SDS011;13364;49.084;9.978;2023-08-17T07:00:29;6.97;;;6.22;;
25437;SDS011;13364;49.084;9.978;2023-08-17T07:02:56;7.93;;;6.63;;
25437;SDS011;13364;49.084;9.978;2023-08-17T07:07:53;8.32;;;7.30;;
25437;SDS011;13364;49.084;9.978;2023-08-17T07:10:21;7.55;;;6.85;;
25437;SDS011;13364;49.084;9.978;2023-08-17T07:12:49;7.90;;;6.72;;
25437;SDS011;13364;49.084;9.978;2023-08-17T07:15:16;8.25;;;7.13;;
25437;SDS011;13364;49.084;9.978;2023-08-17T07:17:43;8.48;;;6.82;;
25437;SDS011;13364;49.084;9.978;2023-08-17T07:20:10;7.43;;;6.72;;
25437;SDS011;13364;49.084;9.978;2023-08-17T07:22:40;8.10;;;6.72;;
25437;SDS011;13364;49.084;9.978;2023-08-17T07:25:08;8.82;;;7.03;;
25437;SDS011;13364;49.084;9.978;2023-08-17T07:27:35;6.97;;;6.25;;
25437;SDS011;13364;49.084;9.978;2023-08-17T07:30:06;7.53;;;6.50;;
25437;SDS011;13364;49.084;9.978;2023-08-17T07:32:33;8.55;;;6.80;;
25437;SDS011;13364;49.084;9.978;2023-08-17T07:35:05;7.45;;;6.75;;
25437;SDS011;13364;49.084;9.978;2023-08-17T07:37:36;8.07;;;7.28;;
25437;SDS011;13364;49.084;9.978;2023-08-17T07:40:09;6.85;;;6.25;;
25437;SDS011;13364;49.084;9.978;2023-08-17T07:42:36;7.60;;;6.80;;
25437;SDS011;13364;49.084;9.978;2023-08-17T07:45:04;7.35;;;6.65;;
25437;SDS011;13364;49.084;9.978;2023-08-17T07:47:34;8.80;;;6.47;;
25437;SDS011;13364;49.084;9.978;2023-08-17T07:50:08;7.18;;;6.40;;
25437;SDS011;13364;49.084;9.978;2023-08-17T07:52:38;7.28;;;6.57;;
25437;SDS011;13364;49.084;9.978;2023-08-17T07:55:05;9.43;;;6.68;;
25437;SDS011;13364;49.084;9.978;2023-08-17T07:57:33;8.27;;;7.05;;
25437;SDS011;13364;49.084;9.978;2023-08-17T08:00:12;7.30;;;6.57;;
25437;SDS011;13364;49.084;9.978;2023-08-17T08:03:11;7.70;;;6.72;;
25437;SDS011;13364;49.084;9.978;2023-08-17T08:05:39;7.70;;;6.88;;
25437;SDS011;13364;49.084;9.978;2023-08-17T08:10:36;9.20;;;6.78;;
25437;SDS011;13364;49.084;9.978;2023-08-17T08:13:09;6.93;;;6.13;;
25437;SDS011;13364;49.084;9.978;2023-08-17T08:15:43;7.88;;;6.82;;
25437;SDS011;13364;49.084;9.978;2023-08-17T08:18:42;7.90;;;6.78;;
25437;SDS011;13364;49.084;9.978;2023-08-17T08:21:38;6.80;;;6.10;;
25437;SDS011;13364;49.084;9.978;2023-08-17T08:31:27;7.50;;;6.80;;
25437;SDS011;13364;49.084;9.978;2023-08-17T08:33:54;8.55;;;7.72;;
25437;SDS011;13364;49.084;9.978;2023-08-17T08:36:21;8.88;;;7.20;;
25437;SDS011;13364;49.084;9.978;2023-08-17T08:38:48;7.40;;;6.70;;
25437;SDS011;13364;49.084;9.978;2023-08-17T08:41:15;7.20;;;6.50;;
25437;SDS011;13364;49.084;9.978;2023-08-17T08:43:43;7.20;;;6.50;;
25437;SDS011;13364;49.084;9.978;2023-08-17T08:46:12;7.85;;;6.82;;
25437;SDS011;13364;49.084;9.978;2023-08-17T08:48:41;7.85;;;7.05;;
25437;SDS011;13364;49.084;9.978;2023-08-17T08:51:10;7.85;;;6.82;;
25437;SDS011;13364;49.084;9.978;2023-08-17T08:53:44;8.43;;;7.15;;
25437;SDS011;13364;49.084;9.978;2023-08-17T08:56:13;7.63;;;6.72;;
25437;SDS011;13364;49.084;9.978;2023-08-17T08:58:45;7.28;;;6.57;;
25437;SDS011;13364;49.084;9.978;2023-08-17T09:01:20;7.53;;;6.82;;
25437;SDS011;13364;49.084;9.978;2023-08-17T09:03:49;7.10;;;6.22;;
25437;SDS011;13364;49.084;9.978;2023-08-17T09:06:18;7.78;;;7.07;;
25437;SDS011;13364;49.084;9.978;2023-08-17T09:08:47;8.38;;;6.47;;
25437;SDS011;13364;49.084;9.978;2023-08-17T09:11:16;7.60;;;6.68;;
25437;SDS011;13364;49.084;9.978;2023-08-17T09:13:43;6.88;;;6.22;;
25437;SDS011;13364;49.084;9.978;2023-08-17T09:16:10;6.55;;;5.95;;
25437;SDS011;13364;49.084;9.978;2023-08-17T09:18:38;7.13;;;6.03;;
25437;SDS011;13364;49.084;9.978;2023-08-17T09:21:05;7.30;;;6.60;;
25437;SDS011;13364;49.084;9.978;2023-08-17T09:23:32;7.22;;;6.53;;
25437;SDS011;13364;49.084;9.978;2023-08-17T09:26:05;6.90;;;6.20;;
25437;SDS011;13364;49.084;9.978;2023-08-17T09:28:36;6.82;;;6.22;;
25437;SDS011;13364;49.084;9.978;2023-08-17T09:31:05;7.03;;;6.38;;
25437;SDS011;13364;49.084;9.978;2023-08-17T09:33:32;6.05;;;5.45;;
25437;SDS011;13364;49.084;9.978;2023-08-17T09:36:00;6.65;;;6.05;;
25437;SDS011;13364;49.084;9.978;2023-08-17T09:38:27;5.75;;;5.25;;
25437;SDS011;13364;49.084;9.978;2023-08-17T09:40:55;6.70;;;6.00;;
25437;SDS011;13364;49.084;9.978;2023-08-17T09:43:24;7.35;;;6.65;;
25437;SDS011;13364;49.084;9.978;2023-08-17T09:45:55;6.47;;;5.88;;
25437;SDS011;13364;49.084;9.978;2023-08-17T09:48:23;8.38;;;6.00;;
25437;SDS011;13364;49.084;9.978;2023-08-17T09:50:52;7.75;;;6.68;;
25437;SDS011;13364;49.084;9.978;2023-08-17T09:53:21;6.13;;;5.53;;
25437;SDS011;13364;49.084;9.978;2023-08-17T09:55:49;6.65;;;5.95;;
25437;SDS011;13364;49.084;9.978;2023-08-17T09:58:16;6.15;;;5.55;;
25437;SDS011;13364;49.084;9.978;2023-08-17T10:00:47;7.50;;;6.50;;
25437;SDS011;13364;49.084;9.978;2023-08-17T10:03:18;6.97;;;6.28;;
25437;SDS011;13364;49.084;9.978;2023-08-17T10:05:56;6.40;;;5.80;;
25437;SDS011;13364;49.084;9.978;2023-08-17T10:08:28;6.60;;;6.00;;
25437;SDS011;13364;49.084;9.978;2023-08-17T10:10:57;6.30;;;5.80;;
25437;SDS011;13364;49.084;9.978;2023-08-17T10:13:35;7.68;;;6.05;;
25437;SDS011;13364;49.084;9.978;2023-08-17T10:16:14;6.13;;;5.57;;
25437;SDS011;13364;49.084;9.978;2023-08-17T10:21:29;6.38;;;5.82;;
25437;SDS011;13364;49.084;9.978;2023-08-17T10:24:04;6.00;;;5.50;;
25437;SDS011;13364;49.084;9.978;2023-08-17T10:26:32;6.70;;;5.68;;
25437;SDS011;13364;49.084;9.978;2023-08-17T10:29:00;6.25;;;5.75;;
25437;SDS011;13364;49.084;9.978;2023-08-17T10:31:40;5.55;;;5.05;;
25437;SDS011;13364;49.084;9.978;2023-08-17T10:34:11;6.18;;;5.60;;
25437;SDS011;13364;49.084;9.978;2023-08-17T10:36:40;6.13;;;5.50;;
25437;SDS011;13364;49.084;9.978;2023-08-17T10:39:21;6.05;;;5.55;;
25437;SDS011;13364;49.084;9.978;2023-08-17T10:41:54;6.15;;;5.57;;
25437;SDS011;13364;49.084;9.978;2023-08-17T10:44:39;5.97;;;5.38;;
25437;SDS011;13364;49.084;9.978;2023-08-17T10:49:50;5.40;;;4.90;;
25437;SDS011;13364;49.084;9.978;2023-08-17T10:52:25;5.60;;;5.10;;
25437;SDS011;13364;49.084;9.978;2023-08-17T10:54:59;6.40;;;5.90;;
25437;SDS011;13364;49.084;9.978;2023-08-17T10:57:31;6.88;;;6.18;;
25437;SDS011;13364;49.084;9.978;2023-08-17T11:02:51;5.68;;;5.18;;
25437;SDS011;13364;49.084;9.978;2023-08-17T11:05:45;6.55;;;5.95;;
25437;SDS011;13364;49.084;9.978;2023-08-17T11:10:48;7.90;;;5.28;;
25437;SDS011;13364;49.084;9.978;2023-08-17T11:13:29;7.95;;;5.78;;
25437;SDS011;13364;49.084;9.978;2023-08-17T11:16:01;5.72;;;5.22;;
25437;SDS011;13364;49.084;9.978;2023-08-17T11:18:31;5.63;;;5.13;;
25437;SDS011;13364;49.084;9.978;2023-08-17T11:26:51;6.15;;;5.55;;
25437;SDS011;13364;49.084;9.978;2023-08-17T11:29:18;5.35;;;4.85;;
25437;SDS011;13364;49.084;9.978;2023-08-17T11:41:39;5.50;;;5.07;;
25437;SDS011;13364;49.084;9.978;2023-08-17T11:44:10;5.78;;;5.25;;
25437;SDS011;13364;49.084;9.978;2023-08-17T11:46:38;5.73;;;5.27;;
25437;SDS011;13364;49.084;9.978;2023-08-17T11:49:06;5.93;;;5.43;;
25437;SDS011;13364;49.084;9.978;2023-08-17T11:51:33;5.80;;;5.30;;
25437;SDS011;13364;49.084;9.978;2023-08-17T11:54:01;6.13;;;5.55;;
25437;SDS011;13364;49.084;9.978;2023-08-17T11:58:57;5.63;;;5.15;;
25437;SDS011;13364;49.084;9.978;2023-08-17T12:01:25;5.50;;;5.07;;
25437;SDS011;13364;49.084;9.978;2023-08-17T12:03:53;6.13;;;4.93;;
25437;SDS011;13364;49.084;9.978;2023-08-17T12:06:20;5.78;;;5.25;;
25437;SDS011;13364;49.084;9.978;2023-08-17T12:08:47;5.47;;;4.97;;
25437;SDS011;13364;49.084;9.978;2023-08-17T12:11:15;5.28;;;4.78;;
25437;SDS011;13364;49.084;9.978;2023-08-17T12:13:49;5.40;;;4.90;;
25437;SDS011;13364;49.084;9.978;2023-08-17T12:16:20;5.72;;;5.10;;
25437;SDS011;13364;49.084;9.978;2023-08-17T12:18:49;5.10;;;4.70;;
25437;SDS011;13364;49.084;9.978;2023-08-17T12:21:24;4.78;;;4.38;;
25437;SDS011;13364;49.084;9.978;2023-08-17T12:23:52;5.85;;;5.00;;
25437;SDS011;13364;49.084;9.978;2023-08-17T12:26:20;5.50;;;5.00;;
25437;SDS011;13364;49.084;9.978;2023-08-17T12:28:48;5.53;;;5.03;;
25437;SDS011;13364;49.084;9.978;2023-08-17T12:31:20;5.50;;;5.00;;
25437;SDS011;13364;49.084;9.978;2023-08-17T12:33:50;5.75;;;5.15;;
25437;SDS011;13364;49.084;9.978;2023-08-17T12:36:18;5.63;;;5.13;;
25437;SDS011;13364;49.084;9.978;2023-08-17T12:38:47;6.35;;;4.88;;
25437;SDS011;13364;49.084;9.978;2023-08-17T12:41:15;5.47;;;4.97;;
25437;SDS011;13364;49.084;9.978;2023-08-17T12:43:42;5.63;;;5.13;;
25437;SDS011;13364;49.084;9.978;2023-08-17T12:46:10;6.70;;;6.07;;
25437;SDS011;13364;49.084;9.978;2023-08-17T12:48:40;5.68;;;5.18;;
25437;SDS011;13364;49.084;9.978;2023-08-17T12:51:07;5.95;;;5.45;;
25437;SDS011;13364;49.084;9.978;2023-08-17T12:53:34;6.65;;;4.80;;
25437;SDS011;13364;49.084;9.978;2023-08-17T12:56:02;6.60;;;5.50;;
25437;SDS011;13364;49.084;9.978;2023-08-17T12:58:30;5.60;;;5.00;;
25437;SDS011;13364;49.084;9.978;2023-08-17T13:00:58;5.82;;;5.32;;
25437;SDS011;13364;49.084;9.978;2023-08-17T13:03:25;5.75;;;5.25;;
25437;SDS011;13364;49.084;9.978;2023-08-17T13:05:52;4.97;;;4.57;;
25437;SDS011;13364;49.084;9.978;2023-08-17T13:08:20;6.38;;;5.72;;
25437;SDS011;13364;49.084;9.978;2023-08-17T13:10:48;5.18;;;4.78;;
25437;SDS011;13364;49.084;9.978;2023-08-17T13:13:15;6.15;;;5.45;;
25437;SDS011;13364;49.084;9.978;2023-08-17T13:15:42;6.38;;;5.85;;
25437;SDS011;13364;49.084;9.978;2023-08-17T13:18:09;5.80;;;5.25;;
25437;SDS011;13364;49.084;9.978;2023-08-17T13:20:36;5.80;;;5.25;;
25437;SDS011;13364;49.084;9.978;2023-08-17T13:23:05;7.23;;;5.07;;
25437;SDS011;13364;49.084;9.978;2023-08-17T13:25:32;7.15;;;5.88;;
25437;SDS011;13364;49.084;9.978;2023-08-17T13:27:59;5.97;;;5.47;;
25437;SDS011;13364;49.084;9.978;2023-08-17T13:30:26;5.47;;;5.05;;
25437;SDS011;13364;49.084;9.978;2023-08-17T13:32:53;5.78;;;5.10;;
25437;SDS011;13364;49.084;9.978;2023-08-17T13:35:21;6.47;;;5.88;;
25437;SDS011;13364;49.084;9.978;2023-08-17T13:37:52;5.70;;;5.20;;
25437;SDS011;13364;49.084;9.978;2023-08-17T13:40:24;5.55;;;5.05;;
25437;SDS011;13364;49.084;9.978;2023-08-17T13:42:51;5.30;;;4.90;;
25437;SDS011;13364;49.084;9.978;2023-08-17T13:45:18;6.13;;;5.53;;
25437;SDS011;13364;49.084;9.978;2023-08-17T13:47:45;6.07;;;5.47;;
25437;SDS011;13364;49.084;9.978;2023-08-17T13:50:12;5.60;;;5.10;;
25437;SDS011;13364;49.084;9.978;2023-08-17T13:52:39;5.22;;;4.70;;
25437;SDS011;13364;49.084;9.978;2023-08-17T13:55:08;6.10;;;5.53;;
25437;SDS011;13364;49.084;9.978;2023-08-17T13:57:35;5.10;;;4.70;;
25437;SDS011;13364;49.084;9.978;2023-08-17T14:00:02;6.13;;;5.53;;
25437;SDS011;13364;49.084;9.978;2023-08-17T14:02:30;5.78;;;5.18;;
25437;SDS011;13364;49.084;9.978;2023-08-17T14:04:58;5.00;;;4.60;;
25437;SDS011;13364;49.084;9.978;2023-08-17T14:07:26;5.53;;;5.00;;
25437;SDS011;13364;49.084;9.978;2023-08-17T14:09:53;5.78;;;5.07;;
25437;SDS011;13364;49.084;9.978;2023-08-17T14:12:34;6.22;;;5.63;;
25437;SDS011;13364;49.084;9.978;2023-08-17T14:15:01;5.28;;;4.78;;
25437;SDS011;13364;49.084;9.978;2023-08-17T14:17:29;5.63;;;5.13;;
25437;SDS011;13364;49.084;9.978;2023-08-17T14:19:56;5.28;;;4.88;;
25437;SDS011;13364;49.084;9.978;2023-08-17T14:22:23;5.47;;;5.00;;
25437;SDS011;13364;49.084;9.978;2023-08-17T14:24:50;5.68;;;5.18;;
25437;SDS011;13364;49.084;9.978;2023-08-17T14:27:17;5.22;;;4.82;;
25437;SDS011;13364;49.084;9.978;2023-08-17T14:29:44;6.22;;;4.75;;
25437;SDS011;13364;49.084;9.978;2023-08-17T14:32:13;5.40;;;4.90;;
25437;SDS011;13364;49.084;9.978;2023-08-17T14:34:40;5.85;;;5.35;;
25437;SDS011;13364;49.084;9.978;2023-08-17T14:37:07;6.35;;;5.13;;
25437;SDS011;13364;49.084;9.978;2023-08-17T14:43:00;5.80;;;5.22;;
25437;SDS011;13364;49.084;9.978;2023-08-17T14:45:27;6.65;;;5.15;;
25437;SDS011;13364;49.084;9.978;2023-08-17T14:47:55;5.70;;;5.20;;
25437;SDS011;13364;49.084;9.978;2023-08-17T14:50:25;6.05;;;5.45;;
25437;SDS011;13364;49.084;9.978;2023-08-17T14:52:58;7.28;;;5.28;;
25437;SDS011;13364;49.084;9.978;2023-08-17T14:55:29;5.82;;;5.32;;
25437;SDS011;13364;49.084;9.978;2023-08-17T14:57:56;6.05;;;5.50;;
25437;SDS011;13364;49.084;9.978;2023-08-17T15:00:28;5.22;;;4.80;;
25437;SDS011;13364;49.084;9.978;2023-08-17T15:02:59;6.78;;;5.85;;
25437;SDS011;13364;49.084;9.978;2023-08-17T15:05:27;6.18;;;5.10;;
25437;SDS011;13364;49.084;9.978;2023-08-17T15:07:55;6.45;;;5.30;;
25437;SDS011;13364;49.084;9.978;2023-08-17T15:10:22;6.18;;;5.57;;
25437;SDS011;13364;49.084;9.978;2023-08-17T15:12:49;6.45;;;5.78;;
25437;SDS011;13364;49.084;9.978;2023-08-17T15:15:16;5.97;;;5.40;;
25437;SDS011;13364;49.084;9.978;2023-08-17T15:17:46;6.10;;;5.57;;
25437;SDS011;13364;49.084;9.978;2023-08-17T15:20:14;6.50;;;5.90;;
25437;SDS011;13364;49.084;9.978;2023-08-17T15:22:41;6.43;;;5.82;;
25437;SDS011;13364;49.084;9.978;2023-08-17T15:25:08;8.43;;;6.78;;
25437;SDS011;13364;49.084;9.978;2023-08-17T15:27:35;6.55;;;5.95;;
25437;SDS011;13364;49.084;9.978;2023-08-17T15:30:02;8.00;;;6.25;;
25437;SDS011;13364;49.084;9.978;2023-08-17T15:32:30;8.65;;;6.28;;
25437;SDS011;13364;49.084;9.978;2023-08-17T15:34:57;6.97;;;6.22;;
25437;SDS011;13364;49.084;9.978;2023-08-17T15:37:24;6.85;;;6.15;;
25437;SDS011;13364;49.084;9.978;2023-08-17T15:39:53;7.45;;;6.07;;
25437;SDS011;13364;49.084;9.978;2023-08-17T15:42:20;6.50;;;5.25;;
25437;SDS011;13364;49.084;9.978;2023-08-17T15:44:47;6.22;;;5.68;;
25437;SDS011;13364;49.084;9.978;2023-08-17T15:47:14;6.40;;;5.80;;
25437;SDS011;13364;49.084;9.978;2023-08-17T15:49:41;6.38;;;5.82;;
25437;SDS011;13364;49.084;9.978;2023-08-17T15:52:08;6.20;;;5.60;;
25437;SDS011;13364;49.084;9.978;2023-08-17T15:54:37;6.78;;;6.07;;
25437;SDS011;13364;49.084;9.978;2023-08-17T15:57:04;5.75;;;5.13;;
25437;SDS011;13364;49.084;9.978;2023-08-17T15:59:32;6.18;;;5.57;;